createdAt,value
2019-05-09T00:02:40.059Z,70.90
2019-05-09T00:05:13.831Z,70.67
2019-05-09T00:07:45.655Z,70.70
2019-05-09T00:10:18.733Z,70.68
2019-05-09T00:12:50.307Z,70.75
2019-05-09T00:15:24.295Z,70.73
2019-05-09T00:17:56.361Z,70.65
2019-05-09T00:20:43.568Z,70.66
2019-05-09T00:23:15.271Z,70.51
2019-05-09T00:25:46.891Z,70.55
2019-05-09T00:28:19.707Z,70.25
2019-05-09T00:30:58.190Z,69.98
2019-05-09T00:33:31.003Z,69.94
2019-05-09T00:36:04.262Z,69.60
2019-05-09T00:38:43.866Z,69.49
2019-05-09T00:41:18.278Z,69.07
2019-05-09T00:43:56.240Z,69.26
2019-05-09T00:46:43.217Z,70.18
2019-05-09T00:49:20.520Z,70.95
2019-05-09T00:51:54.077Z,70.02
2019-05-09T00:54:25.846Z,69.92
2019-05-09T00:56:57.783Z,69.94
2019-05-09T00:59:29.399Z,69.91
2019-05-09T01:02:01.013Z,70.57
2019-05-09T01:04:33.295Z,70.91
2019-05-09T01:07:05.799Z,70.73
2019-05-09T01:09:37.579Z,70.47
2019-05-09T01:12:09.134Z,70.52
2019-05-09T01:14:42.728Z,70.71
2019-05-09T01:17:14.213Z,70.84
2019-05-09T01:19:45.984Z,70.96
2019-05-09T01:22:17.501Z,71.57
2019-05-09T01:24:49.359Z,72.06
2019-05-09T01:27:23.155Z,71.96
2019-05-09T01:29:54.190Z,71.77
2019-05-09T01:32:47.633Z,71.62
2019-05-09T01:35:19.497Z,71.57
2019-05-09T01:37:51.046Z,71.65
2019-05-09T01:40:23.889Z,72.31
2019-05-09T01:42:55.998Z,72.58
2019-05-09T01:45:27.818Z,73.51
2019-05-09T01:47:59.626Z,72.89
2019-05-09T01:50:33.897Z,73.59
2019-05-09T01:53:04.986Z,73.63
2019-05-09T01:55:54.343Z,74.62
2019-05-09T01:58:26.047Z,74.36
2019-05-09T02:00:57.600Z,75.46
2019-05-09T02:03:29.218Z,75.21
2019-05-09T02:06:03.114Z,74.71
2019-05-09T02:08:34.986Z,74.22
2019-05-09T02:13:56.828Z,74.02
2019-05-09T02:16:43.252Z,74.08
2019-05-09T02:19:20.251Z,74.09
2019-05-09T02:21:53.129Z,74.61
2019-05-09T02:24:25.849Z,75.08
2019-05-09T02:26:57.915Z,74.84
2019-05-09T02:29:30.048Z,74.93
2019-05-09T02:32:04.664Z,75.18
2019-05-09T02:34:35.812Z,75.35
2019-05-09T02:37:09.297Z,75.70
2019-05-09T02:39:40.838Z,75.83
2019-05-09T02:42:14.254Z,75.80
2019-05-09T02:44:48.959Z,75.37
2019-05-09T02:47:22.038Z,75.31
2019-05-09T02:49:53.651Z,75.37
2019-05-09T02:52:28.459Z,74.98
2019-05-09T02:54:58.761Z,74.76
2019-05-09T02:57:31.389Z,74.81
2019-05-09T03:00:28.587Z,74.49
2019-05-09T03:03:13.725Z,74.52
2019-05-09T03:05:48.498Z,74.37
2019-05-09T03:08:19.704Z,73.86
2019-05-09T03:10:51.666Z,73.70
2019-05-09T03:13:23.806Z,73.37
2019-05-09T03:15:59.586Z,73.32
2019-05-09T03:18:31.645Z,72.91
2019-05-09T03:21:13.250Z,72.54
2019-05-09T03:23:44.823Z,72.61
2019-05-09T03:26:19.768Z,72.41
2019-05-09T03:29:19.721Z,72.21
2019-05-09T03:31:52.221Z,72.02
2019-05-09T03:34:23.790Z,72.36
2019-05-09T03:36:57.965Z,72.04
2019-05-09T03:39:28.903Z,71.72
2019-05-09T03:42:00.503Z,71.80
2019-05-09T03:44:31.992Z,71.98
2019-05-09T03:47:27.773Z,71.98
2019-05-09T03:50:10.470Z,71.79
2019-05-09T03:52:42.043Z,71.77
2019-05-09T03:55:18.647Z,71.57
2019-05-09T03:58:17.632Z,71.37
2019-05-09T04:00:48.849Z,71.62
2019-05-09T04:03:20.545Z,71.62
2019-05-09T04:05:59.085Z,72.50
2019-05-09T04:08:28.061Z,73.17
2019-05-09T04:10:58.961Z,73.07
2019-05-09T04:13:38.573Z,72.43
2019-05-09T04:16:10.555Z,73.26
2019-05-09T04:18:42.116Z,73.15
2019-05-09T04:21:13.701Z,73.42
2019-05-09T04:23:45.426Z,73.45
2019-05-09T04:26:24.246Z,73.62
2019-05-09T04:28:57.822Z,73.25
2019-05-09T04:31:29.581Z,72.87
2019-05-09T04:34:01.129Z,72.66
2019-05-09T04:36:41.631Z,72.70
2019-05-09T04:39:23.431Z,72.47
2019-05-09T04:41:49.035Z,72.15
2019-05-09T04:44:31.778Z,71.95
2019-05-09T04:47:05.205Z,71.95
2019-05-09T04:49:40.878Z,72.04
2019-05-09T04:52:10.324Z,71.72
2019-05-09T04:54:41.878Z,71.54
2019-05-09T04:57:13.534Z,71.44
2019-05-09T04:59:47.561Z,71.07
2019-05-09T05:02:44.283Z,70.81
2019-05-09T05:05:18.083Z,70.54
2019-05-09T05:07:49.634Z,70.23
2019-05-09T05:10:21.608Z,70.35
2019-05-09T05:12:57.284Z,70.04
2019-05-09T05:15:28.918Z,70.16
2019-05-09T05:18:00.504Z,69.97
2019-05-09T05:20:32.579Z,69.72
2019-05-09T05:23:11.969Z,69.69
2019-05-09T05:25:47.515Z,69.51
2019-05-09T05:28:18.726Z,69.51
2019-05-09T05:30:50.347Z,69.01
2019-05-09T05:33:53.762Z,68.40
2019-05-09T05:36:23.575Z,68.46
2019-05-09T05:38:55.483Z,68.09
2019-05-09T05:41:28.469Z,67.39
2019-05-09T05:44:00.905Z,67.10
2019-05-09T05:46:51.686Z,66.45
2019-05-09T05:49:23.535Z,66.52
2019-05-09T05:51:57.516Z,66.28
2019-05-09T05:54:28.621Z,66.19
2019-05-09T05:57:00.306Z,65.69
2019-05-09T05:59:31.878Z,65.91
2019-05-09T06:02:03.446Z,65.51
2019-05-09T06:04:35.201Z,65.17
2019-05-09T06:07:08.015Z,64.84
2019-05-09T06:09:39.816Z,64.42
2019-05-09T06:12:11.684Z,64.04
2019-05-09T06:14:43.201Z,64.57
2019-05-09T06:17:15.081Z,64.11
2019-05-09T06:19:48.197Z,64.62
2019-05-09T06:22:20.362Z,64.45
2019-05-09T06:24:52.234Z,64.46
2019-05-09T06:27:24.174Z,63.96
2019-05-09T06:29:57.950Z,63.85
2019-05-09T06:32:29.063Z,63.63
2019-05-09T06:35:01.153Z,63.56
2019-05-09T06:37:32.767Z,63.41
2019-05-09T06:40:07.900Z,62.57
2019-05-09T06:42:41.123Z,62.56
2019-05-09T06:45:48.481Z,63.13
2019-05-09T06:48:19.789Z,62.83
2019-05-09T06:50:51.315Z,62.73
2019-05-09T06:53:23.184Z,63.23
2019-05-09T06:55:54.895Z,62.39
2019-05-09T06:58:32.923Z,62.29
2019-05-09T07:01:19.886Z,62.19
2019-05-09T07:03:54.986Z,62.54
2019-05-09T07:06:39.364Z,62.60
2019-05-09T07:09:29.046Z,61.81
2019-05-09T07:12:01.105Z,62.05
2019-05-09T07:14:38.206Z,62.03
2019-05-09T07:17:09.055Z,61.50
2019-05-09T07:19:43.681Z,60.77
2019-05-09T07:22:38.850Z,60.38
2019-05-09T07:25:20.086Z,60.18
2019-05-09T07:27:51.838Z,60.41
2019-05-09T07:30:37.605Z,60.17
2019-05-09T07:33:19.005Z,59.93
2019-05-09T07:35:49.925Z,60.04
2019-05-09T07:38:32.252Z,60.57
2019-05-09T07:41:04.135Z,60.33
2019-05-09T07:43:38.303Z,60.45
2019-05-09T07:46:23.689Z,61.13
2019-05-09T07:48:57.687Z,59.91
2019-05-09T07:51:28.900Z,60.41
2019-05-09T07:54:00.555Z,59.48
2019-05-09T07:56:32.202Z,60.33
2019-05-09T07:59:03.725Z,59.29
2019-05-09T08:01:35.458Z,59.58
2019-05-09T08:04:07.657Z,59.96
2019-05-09T08:06:39.327Z,58.91
2019-05-09T08:09:10.982Z,59.39
2019-05-09T08:11:42.537Z,58.70
2019-05-09T08:14:14.497Z,58.55
2019-05-09T08:16:47.577Z,59.11
2019-05-09T08:19:19.413Z,58.64
2019-05-09T08:21:52.805Z,58.13
2019-05-09T08:24:24.487Z,57.97
2019-05-09T08:26:58.013Z,57.12
2019-05-09T08:29:29.449Z,57.13
2019-05-09T08:32:01.015Z,56.80
2019-05-09T08:34:32.554Z,56.46
2019-05-09T08:37:04.581Z,56.36
2019-05-09T08:39:39.464Z,56.45
2019-05-09T08:42:11.180Z,56.29
2019-05-09T08:44:42.932Z,56.64
2019-05-09T08:47:14.540Z,56.47
2019-05-09T08:49:58.755Z,56.98
2019-05-09T08:52:30.288Z,57.46
2019-05-09T08:55:01.858Z,57.27
2019-05-09T08:57:33.433Z,56.91
2019-05-09T09:00:08.015Z,56.98
2019-05-09T09:02:40.748Z,56.96
2019-05-09T09:05:14.035Z,56.09
2019-05-09T09:07:45.547Z,55.25
2019-05-09T09:10:18.624Z,56.17
2019-05-09T09:12:51.499Z,55.48
2019-05-09T09:15:23.064Z,55.75
2019-05-09T09:17:54.598Z,54.87
2019-05-09T09:20:28.543Z,55.37
2019-05-09T09:22:59.931Z,55.32
2019-05-09T09:25:31.886Z,54.86
2019-05-09T09:28:03.933Z,55.26
2019-05-09T09:30:38.565Z,56.46
2019-05-09T09:33:13.837Z,56.25
2019-05-09T09:35:43.922Z,55.16
2019-05-09T09:38:17.732Z,53.81
2019-05-09T09:40:49.996Z,54.73
2019-05-09T09:43:21.785Z,54.58
2019-05-09T09:46:07.229Z,54.61
2019-05-09T09:48:28.442Z,54.58
2019-05-09T09:51:00.276Z,54.41
2019-05-09T09:53:31.882Z,54.54
2019-05-09T09:56:03.493Z,54.26
2019-05-09T09:58:35.301Z,53.01
2019-05-09T10:01:28.777Z,52.10
2019-05-09T10:04:19.524Z,53.42
2019-05-09T10:06:48.689Z,52.63
2019-05-09T10:09:21.140Z,52.75
2019-05-09T10:11:56.678Z,52.47
2019-05-09T10:14:29.583Z,51.77
2019-05-09T10:17:11.507Z,51.52
2019-05-09T10:20:04.739Z,52.31
2019-05-09T10:22:44.715Z,52.20
2019-05-09T10:25:10.101Z,52.67
2019-05-09T10:27:41.661Z,52.77
2019-05-09T10:30:14.330Z,51.43
2019-05-09T10:32:47.657Z,51.06
2019-05-09T10:35:24.708Z,50.50
2019-05-09T10:37:58.693Z,50.88
2019-05-09T10:40:29.395Z,50.05
2019-05-09T10:43:33.416Z,50.41
2019-05-09T10:46:10.007Z,49.49
2019-05-09T10:48:43.222Z,51.65
2019-05-09T10:51:14.832Z,50.41
2019-05-09T10:53:48.160Z,50.80
2019-05-09T10:56:20.115Z,51.22
2019-05-09T10:58:51.889Z,51.87
2019-05-09T11:01:23.492Z,51.33
2019-05-09T11:03:55.072Z,52.16
2019-05-09T11:06:28.769Z,51.18
2019-05-09T11:08:59.946Z,51.32
2019-05-09T11:11:32.058Z,52.75
2019-05-09T11:14:03.657Z,52.87
2019-05-09T11:16:45.552Z,53.54
2019-05-09T11:19:08.636Z,53.90
2019-05-09T11:21:42.960Z,54.45
2019-05-09T11:24:14.867Z,54.46
2019-05-09T11:26:48.128Z,54.49
2019-05-09T11:29:20.505Z,53.89
2019-05-09T11:31:52.102Z,52.47
2019-05-09T11:34:24.075Z,52.32
2019-05-09T11:36:57.737Z,52.87
2019-05-09T11:39:38.284Z,50.64
2019-05-09T11:42:02.720Z,51.29
2019-05-09T11:44:34.261Z,49.85
2019-05-09T11:47:05.893Z,49.17
2019-05-09T11:49:39.036Z,48.27
2019-05-09T11:52:11.128Z,50.18
2019-05-09T11:54:42.762Z,48.61
2019-05-09T11:57:14.450Z,48.18
2019-05-09T11:59:48.015Z,49.51
2019-05-09T12:02:19.412Z,50.03
2019-05-09T12:04:50.932Z,50.22
2019-05-09T12:07:22.506Z,49.23
2019-05-09T12:09:54.056Z,49.56
2019-05-09T12:12:28.283Z,48.99
2019-05-09T12:15:00.381Z,49.31
2019-05-09T12:17:49.895Z,48.82
2019-05-09T12:20:12.277Z,48.25
2019-05-09T12:22:39.775Z,47.23
2019-05-09T12:25:11.440Z,48.70
2019-05-09T12:27:43.129Z,48.07
2019-05-09T12:30:15.392Z,49.63
2019-05-09T12:32:47.375Z,48.08
2019-05-09T12:35:19.209Z,48.42
2019-05-09T12:37:50.845Z,47.50
2019-05-09T12:40:22.433Z,46.87
2019-05-09T12:42:55.100Z,47.89
2019-05-09T12:45:26.705Z,47.28
2019-05-09T12:48:07.542Z,47.42
2019-05-09T12:50:31.809Z,47.40
2019-05-09T12:53:06.195Z,47.26
2019-05-09T12:55:38.972Z,47.38
2019-05-09T12:58:27.938Z,47.66
2019-05-09T13:01:00.749Z,47.28
2019-05-09T13:03:32.728Z,47.91
2019-05-09T13:06:04.740Z,46.61
2019-05-09T13:08:38.516Z,45.28
2019-05-09T13:11:09.857Z,46.74
2019-05-09T13:13:41.698Z,47.72
2019-05-09T13:16:45.494Z,47.33
2019-05-09T13:19:13.721Z,48.81
2019-05-09T13:21:45.460Z,46.35
2019-05-09T13:24:19.625Z,50.12
2019-05-09T13:26:52.614Z,53.94
2019-05-09T13:29:26.894Z,54.63
2019-05-09T13:31:58.984Z,53.44
2019-05-09T13:34:31.086Z,52.00
2019-05-09T13:37:02.926Z,52.05
2019-05-09T13:39:34.523Z,49.56
2019-05-09T13:42:08.169Z,49.28
2019-05-09T13:44:42.743Z,50.72
2019-05-09T13:47:14.327Z,51.87
2019-05-09T13:49:48.259Z,51.65
2019-05-09T13:52:22.109Z,49.78
2019-05-09T13:54:53.915Z,49.43
2019-05-09T13:57:27.759Z,48.73
2019-05-09T13:59:59.754Z,47.36
2019-05-09T14:02:31.535Z,48.59
2019-05-09T14:05:03.479Z,48.80
2019-05-09T14:07:37.668Z,47.18
2019-05-09T14:10:10.388Z,47.76
2019-05-09T14:12:42.126Z,46.13
2019-05-09T14:15:14.096Z,47.03
2019-05-09T14:17:52.592Z,46.86
2019-05-09T14:20:21.136Z,46.72
2019-05-09T14:22:52.833Z,45.40
2019-05-09T14:25:24.480Z,46.21
2019-05-09T14:27:56.225Z,46.05
2019-05-09T14:30:28.660Z,46.39
2019-05-09T14:33:00.886Z,47.02
2019-05-09T14:35:32.900Z,47.79
2019-05-09T14:38:04.620Z,48.28
2019-05-09T14:40:37.414Z,49.56
2019-05-09T14:43:09.924Z,49.33
2019-05-09T14:45:41.722Z,52.86
2019-05-09T14:48:13.459Z,54.16
2019-05-09T14:50:44.988Z,54.50
2019-05-09T14:53:18.197Z,53.72
2019-05-09T14:55:49.929Z,53.91
2019-05-09T14:58:23.343Z,55.23
2019-05-09T15:00:54.978Z,56.32
2019-05-09T15:03:27.772Z,56.80
2019-05-09T15:05:59.556Z,55.69
2019-05-09T15:08:31.369Z,54.26
2019-05-09T15:11:04.394Z,53.38
2019-05-09T15:13:35.956Z,53.13
2019-05-09T15:16:09.609Z,52.37
2019-05-09T15:18:41.340Z,50.88
2019-05-09T15:21:14.545Z,50.95
2019-05-09T15:23:48.179Z,51.13
2019-05-09T15:26:19.483Z,51.29
2019-05-09T15:28:51.130Z,52.49
2019-05-09T15:31:22.781Z,51.74
2019-05-09T15:33:54.377Z,50.23
2019-05-09T15:36:25.884Z,50.76
2019-05-09T15:38:59.248Z,50.81
2019-05-09T15:41:31.079Z,50.35
2019-05-09T15:44:02.642Z,49.75
2019-05-09T15:46:43.305Z,49.95
2019-05-09T15:49:15.009Z,50.57
2019-05-09T15:51:47.781Z,51.15
2019-05-09T15:54:19.588Z,50.95
2019-05-09T15:56:51.433Z,51.01
2019-05-09T15:59:23.040Z,50.70
2019-05-09T16:01:58.336Z,50.45
2019-05-09T16:04:29.840Z,51.33
2019-05-09T16:07:01.890Z,52.21
2019-05-09T16:09:33.536Z,52.22
2019-05-09T16:12:07.640Z,51.67
2019-05-09T16:14:39.197Z,52.06
2019-05-09T16:17:10.769Z,52.52
2019-05-09T16:19:43.446Z,53.13
2019-05-09T16:22:15.039Z,52.55
2019-05-09T16:24:48.596Z,54.09
2019-05-09T16:27:20.097Z,54.73
2019-05-09T16:29:51.713Z,54.55
2019-05-09T16:32:25.378Z,53.99
2019-05-09T16:34:57.104Z,54.02
2019-05-09T16:37:28.895Z,53.62
2019-05-09T16:40:00.783Z,53.70
2019-05-09T16:42:32.435Z,53.99
2019-05-09T16:45:04.297Z,53.28
2019-05-09T16:47:36.059Z,53.88
2019-05-09T16:50:11.940Z,53.82
2019-05-09T16:52:43.730Z,53.86
2019-05-09T16:55:20.449Z,53.60
2019-05-09T16:57:52.087Z,54.13
2019-05-09T17:00:44.530Z,54.98
2019-05-09T17:03:17.619Z,54.80
2019-05-09T17:05:50.412Z,55.51
2019-05-09T17:08:22.399Z,56.43
2019-05-09T17:10:53.977Z,57.02
2019-05-09T17:13:28.843Z,56.96
2019-05-09T17:16:03.120Z,57.16
2019-05-09T17:18:34.995Z,57.31
2019-05-09T17:21:32.610Z,57.62
2019-05-09T17:24:08.103Z,57.74
2019-05-09T17:26:39.197Z,58.22
2019-05-09T17:29:11.320Z,58.42
2019-05-09T17:31:43.144Z,58.94
2019-05-09T17:34:17.781Z,59.52
2019-05-09T17:36:49.072Z,59.75
2019-05-09T17:39:20.633Z,59.56
2019-05-09T17:41:52.493Z,59.58
2019-05-09T17:44:27.932Z,59.43
2019-05-09T17:46:58.872Z,59.77
2019-05-09T17:49:30.450Z,59.85
2019-05-09T17:52:02.301Z,59.55
2019-05-09T17:54:33.950Z,60.19
2019-05-09T17:57:07.995Z,60.52
2019-05-09T17:59:39.457Z,60.43
2019-05-09T18:02:11.359Z,60.84
2019-05-09T18:04:43.336Z,60.97
2019-05-09T18:07:18.074Z,61.49
2019-05-09T18:09:49.346Z,61.42
2019-05-09T18:12:21.395Z,61.29
2019-05-09T18:14:53.522Z,61.69
2019-05-09T18:17:27.525Z,61.79
2019-05-09T18:19:59.281Z,62.03
2019-05-09T18:22:31.206Z,61.31
2019-05-09T18:25:03.273Z,61.40
2019-05-09T18:27:35.260Z,61.82
2019-05-09T18:30:08.554Z,62.01
2019-05-09T18:32:54.503Z,61.61
2019-05-09T18:35:27.840Z,61.55
2019-05-09T18:37:59.993Z,61.67
2019-05-09T18:40:32.202Z,61.67
2019-05-09T18:43:04.020Z,61.83
2019-05-09T18:45:37.613Z,62.08
2019-05-09T18:48:09.516Z,62.00
2019-05-09T18:50:41.513Z,62.46
2019-05-09T18:53:13.303Z,62.35
2019-05-09T18:55:44.901Z,62.85
2019-05-09T18:58:16.680Z,63.11
2019-05-09T19:00:48.257Z,63.02
2019-05-09T19:03:20.419Z,63.00
2019-05-09T19:05:52.046Z,63.37
2019-05-09T19:08:23.730Z,63.52
2019-05-09T19:10:55.611Z,64.03
2019-05-09T19:13:27.580Z,64.24
2019-05-09T19:16:30.175Z,64.38
2019-05-09T19:19:23.530Z,64.31
2019-05-09T19:21:58.563Z,64.35
2019-05-09T19:24:30.118Z,64.92
2019-05-09T19:27:01.880Z,65.83
2019-05-09T19:29:33.452Z,66.56
2019-05-09T19:32:05.666Z,67.89
2019-05-09T19:34:37.326Z,68.24
2019-05-09T19:37:08.884Z,68.34
2019-05-09T19:39:40.884Z,68.97
2019-05-09T19:42:12.559Z,69.35
2019-05-09T19:44:44.274Z,69.60
2019-05-09T19:47:16.060Z,70.12
2019-05-09T19:49:47.942Z,70.24
2019-05-09T19:52:19.445Z,70.45
2019-05-09T19:54:50.965Z,70.55
2019-05-09T19:57:22.838Z,70.41
2019-05-09T19:59:54.462Z,70.09
2019-05-09T20:02:26.076Z,69.90
2019-05-09T20:04:57.765Z,69.42
2019-05-09T20:07:29.422Z,69.25
2019-05-09T20:10:20.089Z,69.33
2019-05-09T20:13:10.269Z,69.60
2019-05-09T20:15:42.280Z,69.88
2019-05-09T20:18:14.554Z,70.45
2019-05-09T20:20:46.837Z,70.35
2019-05-09T20:23:18.781Z,70.31
2019-05-09T20:25:50.695Z,71.02
2019-05-09T20:28:22.582Z,71.58
2019-05-09T20:30:54.506Z,72.01
2019-05-09T20:33:27.821Z,72.39
2019-05-09T20:35:59.887Z,72.40
2019-05-09T20:38:31.666Z,72.81
2019-05-09T20:41:03.852Z,72.94
2019-05-09T20:43:37.004Z,73.13
2019-05-09T20:46:10.456Z,73.20
2019-05-09T20:48:45.026Z,72.91
2019-05-09T20:51:16.930Z,73.39
2019-05-09T20:53:48.880Z,73.43
2019-05-09T20:56:20.869Z,73.52
2019-05-09T20:58:53.697Z,73.35
2019-05-09T21:01:25.726Z,73.56
2019-05-09T21:04:00.513Z,73.93
2019-05-09T21:06:31.571Z,74.34
2019-05-09T21:09:04.746Z,74.90
2019-05-09T21:11:37.442Z,74.85
2019-05-09T21:14:09.320Z,75.07
2019-05-09T21:16:41.579Z,74.82
2019-05-09T21:19:13.543Z,74.73
2019-05-09T21:21:45.551Z,74.60
2019-05-09T21:24:17.755Z,74.71
2019-05-09T21:26:49.809Z,75.03
2019-05-09T21:29:22.022Z,75.12
2019-05-09T21:31:54.409Z,75.14
2019-05-09T21:34:27.007Z,75.32
2019-05-09T21:36:58.675Z,75.31
2019-05-09T21:39:30.403Z,75.47
2019-05-09T21:42:02.142Z,75.33
2019-05-09T21:44:33.996Z,75.14
2019-05-09T21:47:06.195Z,74.95
2019-05-09T21:49:38.145Z,75.06
2019-05-09T21:52:10.194Z,74.69
2019-05-09T21:54:42.002Z,74.74
2019-05-09T21:57:13.992Z,74.66
2019-05-09T21:59:46.040Z,74.92
2019-05-09T22:02:18.077Z,74.82
2019-05-09T22:04:49.696Z,75.25
2019-05-09T22:07:23.403Z,75.37
2019-05-09T22:09:55.749Z,75.35
2019-05-09T22:12:27.519Z,75.31
2019-05-09T22:15:03.341Z,75.27
2019-05-09T22:17:40.626Z,76.70
2019-05-09T22:20:13.118Z,76.65
2019-05-09T22:22:44.736Z,78.87
2019-05-09T22:25:16.843Z,79.72
2019-05-09T22:27:48.790Z,79.82
2019-05-09T22:30:20.891Z,80.21
2019-05-09T22:32:52.543Z,80.29
2019-05-09T22:35:24.276Z,79.02
2019-05-09T22:37:56.104Z,79.55
2019-05-09T22:40:28.097Z,79.18
2019-05-09T22:42:59.675Z,78.73
2019-05-09T22:45:31.635Z,79.25
2019-05-09T22:48:03.607Z,78.70
2019-05-09T22:50:36.812Z,78.57
2019-05-09T22:53:08.393Z,77.93
2019-05-09T22:55:40.283Z,78.50
2019-05-09T22:58:13.107Z,79.01
2019-05-09T23:00:45.241Z,79.50
2019-05-09T23:03:17.012Z,79.97
2019-05-09T23:05:48.548Z,79.20
2019-05-09T23:08:20.992Z,78.27
2019-05-09T23:10:53.551Z,78.59
2019-05-09T23:13:25.728Z,78.38
2019-05-09T23:16:00.524Z,78.56
2019-05-09T23:18:32.241Z,78.78
2019-05-09T23:21:04.142Z,78.80
2019-05-09T23:23:40.046Z,77.69
2019-05-09T23:26:14.438Z,78.56
2019-05-09T23:28:46.285Z,78.63
2019-05-09T23:31:22.299Z,78.62
2019-05-09T23:33:53.962Z,78.49
2019-05-09T23:36:25.564Z,79.04
2019-05-09T23:39:28.544Z,79.05
2019-05-09T23:42:00.135Z,78.43
2019-05-09T23:44:31.864Z,78.59
2019-05-09T23:47:03.446Z,77.54
2019-05-09T23:49:35.182Z,77.09
2019-05-09T23:52:06.710Z,76.94
2019-05-09T23:54:56.279Z,76.57
2019-05-09T23:57:48.773Z,75.80
